Mayo Airport
CYMA : now visible

Aeroporto :











RITROVATECI SU...

 
LOGIN :

Iscrizione | Disclaimer

   EN    FR    IT 

 









Sommario :    VFR   VFR Marginale   IFR   IFR Intensivo   IFR Molto Intensivo
Visibilità : 
Base nubi : 
>= 8 km
>= 3000ft
5 / 8 km
1000 / 3000 ft
1500m / 5 km
500 / 1000 ft
800 / 1500m
200 / 500 ft
< 800m
< 200 ft
Simboli :   Temporali  Nebbia  Neve Forte  Precipitazioni Forti  Vento > 20 kt






- Altitudine del aeroporto : 1653 ft
- Codice IATA : YMA


CYMA - Mayo

ULTIMO METAR :
  • 251500Z 00000KT 20SM BKN031 M27/M30 A3029 RMK SC7 SLP326

METARs OBSOLETI :
  • 251400Z 00000KT 20SM BKN031 M27/M31 A3032 RMK SC7 SLP334
  • 251300Z 00000KT 20SM BKN031 M29/M32 A3035 RMK SC7 SLP344

TAF TAF CYMA
Valido dal 25 a 12 ore il 26 a 00 ore UTC


251138Z 2512/2524 VRB03KT P6SM BKN030
TEMPO 2512/2524 SCT030 RMK NXT FCST BY 251800Z



MetMap, La meteo Aeronautica in un colpo d'occhio ! - Copyright ORBIFLY Dicembre 2007 - Disclaimer

ORBIFLY MET'MAP TEAM :

Programmazione e sviluppo : Alexandra Zaïnal
Concezione : Baudouin d'Aumeries
Aiuto per la programmazione : Marc-Olivier Méhu
Supporto tecnico e logistico : Manuel Goepfert
Aiuto per la traduzione : Arnaldo La Scala

Contatto : metmap@orbifly.com




FONTI E CREDITI :

   NOAA       Earth
Advisory